sensor_id;sensor_type;location;lat;lon;timestamp;temperature;humidity
6008;DHT22;3032;49.484;11.112;2023-12-04T00:01:47;-5.10;99.90
6008;DHT22;3032;49.484;11.112;2023-12-04T00:04:13;-5.70;99.90
6008;DHT22;3032;49.484;11.112;2023-12-04T00:06:41;-5.00;99.90
6008;DHT22;3032;49.484;11.112;2023-12-04T00:09:07;-5.50;99.90
6008;DHT22;3032;49.484;11.112;2023-12-04T00:11:32;-5.10;99.90
6008;DHT22;3032;49.484;11.112;2023-12-04T00:13:58;-4.80;99.90
6008;DHT22;3032;49.484;11.112;2023-12-04T00:16:24;-5.10;99.90
6008;DHT22;3032;49.484;11.112;2023-12-04T00:18:50;-4.80;99.90
6008;DHT22;3032;49.484;11.112;2023-12-04T00:21:15;-5.30;99.90
6008;DHT22;3032;49.484;11.112;2023-12-04T00:23:41;-5.40;99.90
6008;DHT22;3032;49.484;11.112;2023-12-04T00:26:06;-5.20;99.90
6008;DHT22;3032;49.484;11.112;2023-12-04T00:28:33;-5.10;99.90
6008;DHT22;3032;49.484;11.112;2023-12-04T00:31:00;-4.60;99.90
6008;DHT22;3032;49.484;11.112;2023-12-04T00:33:26;-5.00;99.90
6008;DHT22;3032;49.484;11.112;2023-12-04T00:35:51;-4.60;99.90
6008;DHT22;3032;49.484;11.112;2023-12-04T00:38:17;-4.80;99.90
6008;DHT22;3032;49.484;11.112;2023-12-04T00:40:43;-5.10;99.90
6008;DHT22;3032;49.484;11.112;2023-12-04T00:43:08;-5.50;99.90
6008;DHT22;3032;49.484;11.112;2023-12-04T00:45:34;-5.70;99.90
6008;DHT22;3032;49.484;11.112;2023-12-04T00:47:59;-5.70;99.90
6008;DHT22;3032;49.484;11.112;2023-12-04T00:50:25;-5.10;99.90
6008;DHT22;3032;49.484;11.112;2023-12-04T00:52:50;-5.60;99.90
6008;DHT22;3032;49.484;11.112;2023-12-04T00:55:16;-5.50;99.90
6008;DHT22;3032;49.484;11.112;2023-12-04T00:57:41;-5.60;99.90
6008;DHT22;3032;49.484;11.112;2023-12-04T01:00:07;-5.50;99.90
6008;DHT22;3032;49.484;11.112;2023-12-04T01:02:33;-5.60;99.90
6008;DHT22;3032;49.484;11.112;2023-12-04T01:04:59;-4.90;99.90
6008;DHT22;3032;49.484;11.112;2023-12-04T01:07:25;-4.70;99.90
6008;DHT22;3032;49.484;11.112;2023-12-04T01:09:50;-5.30;99.90
6008;DHT22;3032;49.484;11.112;2023-12-04T01:12:16;-4.70;99.90
6008;DHT22;3032;49.484;11.112;2023-12-04T01:14:41;-4.50;99.90
6008;DHT22;3032;49.484;11.112;2023-12-04T01:17:07;-4.50;99.90
6008;DHT22;3032;49.484;11.112;2023-12-04T01:19:32;-5.10;99.90
6008;DHT22;3032;49.484;11.112;2023-12-04T01:21:58;-4.40;99.90
6008;DHT22;3032;49.484;11.112;2023-12-04T01:24:23;-4.60;99.90
6008;DHT22;3032;49.484;11.112;2023-12-04T01:26:49;-5.20;99.90
6008;DHT22;3032;49.484;11.112;2023-12-04T01:29:14;-5.00;99.90
6008;DHT22;3032;49.484;11.112;2023-12-04T01:31:40;-5.10;99.90
6008;DHT22;3032;49.484;11.112;2023-12-04T01:34:05;-5.40;99.90
6008;DHT22;3032;49.484;11.112;2023-12-04T01:36:31;-5.10;99.90
6008;DHT22;3032;49.484;11.112;2023-12-04T01:38:57;-5.00;99.90
6008;DHT22;3032;49.484;11.112;2023-12-04T01:41:22;-5.40;99.90
6008;DHT22;3032;49.484;11.112;2023-12-04T01:43:48;-5.70;99.90
6008;DHT22;3032;49.484;11.112;2023-12-04T01:46:15;-5.10;99.90
6008;DHT22;3032;49.484;11.112;2023-12-04T01:48:45;-5.40;99.90
6008;DHT22;3032;49.484;11.112;2023-12-04T01:51:12;-5.40;99.90
6008;DHT22;3032;49.484;11.112;2023-12-04T01:53:39;-5.00;99.90
6008;DHT22;3032;49.484;11.112;2023-12-04T01:56:06;-5.30;99.90
6008;DHT22;3032;49.484;11.112;2023-12-04T01:58:33;-5.30;99.90
6008;DHT22;3032;49.484;11.112;2023-12-04T02:00:58;-5.10;99.90
6008;DHT22;3032;49.484;11.112;2023-12-04T02:03:25;-4.90;99.90
6008;DHT22;3032;49.484;11.112;2023-12-04T02:05:51;-5.10;99.90
6008;DHT22;3032;49.484;11.112;2023-12-04T02:08:17;-5.20;99.90
6008;DHT22;3032;49.484;11.112;2023-12-04T02:10:43;-5.30;99.90
6008;DHT22;3032;49.484;11.112;2023-12-04T02:13:09;-4.70;99.90
6008;DHT22;3032;49.484;11.112;2023-12-04T02:15:34;-5.20;99.90
6008;DHT22;3032;49.484;11.112;2023-12-04T02:18:02;-5.50;99.90
6008;DHT22;3032;49.484;11.112;2023-12-04T02:20:32;-4.90;99.90
6008;DHT22;3032;49.484;11.112;2023-12-04T02:22:59;-4.80;99.90
6008;DHT22;3032;49.484;11.112;2023-12-04T02:25:24;-5.00;99.90
6008;DHT22;3032;49.484;11.112;2023-12-04T02:27:51;-5.30;99.90
6008;DHT22;3032;49.484;11.112;2023-12-04T02:30:20;-4.70;99.90
6008;DHT22;3032;49.484;11.112;2023-12-04T02:32:47;-4.50;99.90
6008;DHT22;3032;49.484;11.112;2023-12-04T02:35:15;-4.40;99.90
6008;DHT22;3032;49.484;11.112;2023-12-04T02:37:42;-4.40;99.90
6008;DHT22;3032;49.484;11.112;2023-12-04T02:40:08;-4.20;99.90
6008;DHT22;3032;49.484;11.112;2023-12-04T02:42:33;-4.80;99.90
6008;DHT22;3032;49.484;11.112;2023-12-04T02:44:59;-5.10;99.90
6008;DHT22;3032;49.484;11.112;2023-12-04T02:47:25;-4.60;99.90
6008;DHT22;3032;49.484;11.112;2023-12-04T02:49:50;-4.90;99.90
6008;DHT22;3032;49.484;11.112;2023-12-04T02:52:16;-4.90;99.90
6008;DHT22;3032;49.484;11.112;2023-12-04T02:54:42;-4.10;99.90
6008;DHT22;3032;49.484;11.112;2023-12-04T02:57:07;-4.50;99.90
6008;DHT22;3032;49.484;11.112;2023-12-04T02:59:33;-4.00;99.90
6008;DHT22;3032;49.484;11.112;2023-12-04T03:01:58;-4.40;99.90
6008;DHT22;3032;49.484;11.112;2023-12-04T03:04:24;-4.80;99.90
6008;DHT22;3032;49.484;11.112;2023-12-04T03:06:49;-4.40;99.90
6008;DHT22;3032;49.484;11.112;2023-12-04T03:09:15;-4.30;99.90
6008;DHT22;3032;49.484;11.112;2023-12-04T03:11:41;-4.90;99.90
6008;DHT22;3032;49.484;11.112;2023-12-04T03:14:07;-4.30;99.90
6008;DHT22;3032;49.484;11.112;2023-12-04T03:16:32;-4.40;99.90
6008;DHT22;3032;49.484;11.112;2023-12-04T03:18:58;-4.20;99.90
6008;DHT22;3032;49.484;11.112;2023-12-04T03:21:24;-4.20;99.90
6008;DHT22;3032;49.484;11.112;2023-12-04T03:23:49;-4.50;99.90
6008;DHT22;3032;49.484;11.112;2023-12-04T03:26:15;-4.00;99.90
6008;DHT22;3032;49.484;11.112;2023-12-04T03:28:40;-4.20;99.90
6008;DHT22;3032;49.484;11.112;2023-12-04T03:31:06;-4.90;99.90
6008;DHT22;3032;49.484;11.112;2023-12-04T03:33:32;-4.80;99.90
6008;DHT22;3032;49.484;11.112;2023-12-04T03:35:59;-4.30;99.90
6008;DHT22;3032;49.484;11.112;2023-12-04T03:38:25;-4.20;99.90
6008;DHT22;3032;49.484;11.112;2023-12-04T03:40:50;-4.40;99.90
6008;DHT22;3032;49.484;11.112;2023-12-04T03:43:16;-4.40;99.90
6008;DHT22;3032;49.484;11.112;2023-12-04T03:45:41;-4.80;99.90
6008;DHT22;3032;49.484;11.112;2023-12-04T03:48:07;-4.40;99.90
6008;DHT22;3032;49.484;11.112;2023-12-04T03:50:32;-4.60;99.90
6008;DHT22;3032;49.484;11.112;2023-12-04T03:52:58;-4.50;99.90
6008;DHT22;3032;49.484;11.112;2023-12-04T03:55:23;-4.30;99.90
6008;DHT22;3032;49.484;11.112;2023-12-04T03:57:49;-4.30;99.90
6008;DHT22;3032;49.484;11.112;2023-12-04T04:00:15;-3.90;99.90
6008;DHT22;3032;49.484;11.112;2023-12-04T04:02:43;-4.30;99.90
6008;DHT22;3032;49.484;11.112;2023-12-04T04:05:08;-4.30;99.90
6008;DHT22;3032;49.484;11.112;2023-12-04T04:07:34;-4.00;99.90
6008;DHT22;3032;49.484;11.112;2023-12-04T04:10:00;-4.70;99.90
6008;DHT22;3032;49.484;11.112;2023-12-04T04:12:26;-4.40;99.90
6008;DHT22;3032;49.484;11.112;2023-12-04T04:14:52;-5.20;99.90
6008;DHT22;3032;49.484;11.112;2023-12-04T04:17:18;-5.40;99.90
6008;DHT22;3032;49.484;11.112;2023-12-04T04:19:43;-4.90;99.90
6008;DHT22;3032;49.484;11.112;2023-12-04T04:22:09;-5.20;99.90
6008;DHT22;3032;49.484;11.112;2023-12-04T04:24:35;-5.50;99.90
6008;DHT22;3032;49.484;11.112;2023-12-04T04:27:00;-5.30;99.90
6008;DHT22;3032;49.484;11.112;2023-12-04T04:29:26;-4.80;99.90
6008;DHT22;3032;49.484;11.112;2023-12-04T04:31:51;-4.70;99.90
6008;DHT22;3032;49.484;11.112;2023-12-04T04:34:17;-5.20;99.90
6008;DHT22;3032;49.484;11.112;2023-12-04T04:36:43;-5.20;99.90
6008;DHT22;3032;49.484;11.112;2023-12-04T04:39:11;-4.60;99.90
6008;DHT22;3032;49.484;11.112;2023-12-04T04:41:37;-4.50;99.90
6008;DHT22;3032;49.484;11.112;2023-12-04T04:44:02;-4.40;99.90
6008;DHT22;3032;49.484;11.112;2023-12-04T04:46:28;-4.70;99.90
6008;DHT22;3032;49.484;11.112;2023-12-04T04:48:54;-4.10;99.90
6008;DHT22;3032;49.484;11.112;2023-12-04T04:51:19;-4.10;99.90
6008;DHT22;3032;49.484;11.112;2023-12-04T04:53:45;-4.50;99.90
6008;DHT22;3032;49.484;11.112;2023-12-04T04:56:10;-4.70;99.90
6008;DHT22;3032;49.484;11.112;2023-12-04T04:58:36;-4.60;99.90
6008;DHT22;3032;49.484;11.112;2023-12-04T05:01:02;-4.20;99.90
6008;DHT22;3032;49.484;11.112;2023-12-04T05:03:27;-4.60;99.90
6008;DHT22;3032;49.484;11.112;2023-12-04T05:05:53;-4.50;99.90
6008;DHT22;3032;49.484;11.112;2023-12-04T05:08:18;-3.80;99.90
6008;DHT22;3032;49.484;11.112;2023-12-04T05:10:44;-4.10;99.90
6008;DHT22;3032;49.484;11.112;2023-12-04T05:13:09;-4.40;99.90
6008;DHT22;3032;49.484;11.112;2023-12-04T05:15:35;-3.90;99.90
6008;DHT22;3032;49.484;11.112;2023-12-04T05:18:01;-4.00;99.90
6008;DHT22;3032;49.484;11.112;2023-12-04T05:20:27;-4.00;99.90
6008;DHT22;3032;49.484;11.112;2023-12-04T05:22:59;-4.20;99.90
6008;DHT22;3032;49.484;11.112;2023-12-04T05:25:24;-4.20;99.90
6008;DHT22;3032;49.484;11.112;2023-12-04T05:27:50;-4.50;99.90
6008;DHT22;3032;49.484;11.112;2023-12-04T05:30:16;-4.40;99.90
6008;DHT22;3032;49.484;11.112;2023-12-04T05:32:41;-3.60;99.90
6008;DHT22;3032;49.484;11.112;2023-12-04T05:35:07;-4.30;99.90
6008;DHT22;3032;49.484;11.112;2023-12-04T05:37:32;-4.20;99.90
6008;DHT22;3032;49.484;11.112;2023-12-04T05:39:58;-4.20;99.90
6008;DHT22;3032;49.484;11.112;2023-12-04T05:42:23;-4.20;99.90
6008;DHT22;3032;49.484;11.112;2023-12-04T05:44:49;-4.20;99.90
6008;DHT22;3032;49.484;11.112;2023-12-04T05:47:14;-4.10;99.90
6008;DHT22;3032;49.484;11.112;2023-12-04T05:49:40;-4.00;99.90
6008;DHT22;3032;49.484;11.112;2023-12-04T05:52:06;-4.10;99.90
6008;DHT22;3032;49.484;11.112;2023-12-04T05:54:32;-3.70;99.90
6008;DHT22;3032;49.484;11.112;2023-12-04T05:56:57;-4.40;99.90
6008;DHT22;3032;49.484;11.112;2023-12-04T05:59:23;-4.70;99.90
6008;DHT22;3032;49.484;11.112;2023-12-04T06:01:49;-4.10;99.90
6008;DHT22;3032;49.484;11.112;2023-12-04T06:04:14;-4.30;99.90
6008;DHT22;3032;49.484;11.112;2023-12-04T06:06:40;-4.00;99.90
6008;DHT22;3032;49.484;11.112;2023-12-04T06:09:06;-3.90;99.90
6008;DHT22;3032;49.484;11.112;2023-12-04T06:11:31;-4.00;99.90
6008;DHT22;3032;49.484;11.112;2023-12-04T06:13:57;-3.80;99.90
6008;DHT22;3032;49.484;11.112;2023-12-04T06:16:23;-4.00;99.90
6008;DHT22;3032;49.484;11.112;2023-12-04T06:18:49;-4.00;99.90
6008;DHT22;3032;49.484;11.112;2023-12-04T06:21:14;-4.00;99.90
6008;DHT22;3032;49.484;11.112;2023-12-04T06:23:40;-4.00;99.90
6008;DHT22;3032;49.484;11.112;2023-12-04T06:26:06;-4.00;99.90
6008;DHT22;3032;49.484;11.112;2023-12-04T06:28:32;-3.90;99.90
6008;DHT22;3032;49.484;11.112;2023-12-04T06:30:58;-3.90;99.90
6008;DHT22;3032;49.484;11.112;2023-12-04T06:33:24;-3.80;99.90
6008;DHT22;3032;49.484;11.112;2023-12-04T06:35:50;-3.60;99.90
6008;DHT22;3032;49.484;11.112;2023-12-04T06:38:16;-3.60;99.90
6008;DHT22;3032;49.484;11.112;2023-12-04T06:40:42;-3.60;99.90
6008;DHT22;3032;49.484;11.112;2023-12-04T06:43:08;-3.60;99.90
6008;DHT22;3032;49.484;11.112;2023-12-04T06:45:34;-2.90;99.90
6008;DHT22;3032;49.484;11.112;2023-12-04T06:48:00;-3.20;99.90
6008;DHT22;3032;49.484;11.112;2023-12-04T06:50:26;-3.20;99.90
6008;DHT22;3032;49.484;11.112;2023-12-04T06:52:52;-3.10;99.90
6008;DHT22;3032;49.484;11.112;2023-12-04T06:55:17;-3.20;99.90
6008;DHT22;3032;49.484;11.112;2023-12-04T06:57:43;-3.30;99.90
6008;DHT22;3032;49.484;11.112;2023-12-04T07:00:09;-3.50;99.90
6008;DHT22;3032;49.484;11.112;2023-12-04T07:02:41;-3.60;99.90
6008;DHT22;3032;49.484;11.112;2023-12-04T07:05:07;-3.70;99.90
6008;DHT22;3032;49.484;11.112;2023-12-04T07:07:33;-3.80;99.90
6008;DHT22;3032;49.484;11.112;2023-12-04T07:09:58;-3.90;99.90
6008;DHT22;3032;49.484;11.112;2023-12-04T07:12:24;-3.80;99.90
6008;DHT22;3032;49.484;11.112;2023-12-04T07:14:49;-3.60;99.90
6008;DHT22;3032;49.484;11.112;2023-12-04T07:17:15;-3.50;99.90
6008;DHT22;3032;49.484;11.112;2023-12-04T07:19:42;-3.30;99.90
6008;DHT22;3032;49.484;11.112;2023-12-04T07:22:07;-3.20;99.90
6008;DHT22;3032;49.484;11.112;2023-12-04T07:24:33;-3.10;99.90
6008;DHT22;3032;49.484;11.112;2023-12-04T07:26:59;-3.10;99.90
6008;DHT22;3032;49.484;11.112;2023-12-04T07:29:24;-3.10;99.90
6008;DHT22;3032;49.484;11.112;2023-12-04T07:31:50;-2.70;99.90
6008;DHT22;3032;49.484;11.112;2023-12-04T07:34:16;-2.40;99.90
6008;DHT22;3032;49.484;11.112;2023-12-04T07:36:41;-2.50;99.90
6008;DHT22;3032;49.484;11.112;2023-12-04T07:39:08;-2.50;99.90
6008;DHT22;3032;49.484;11.112;2023-12-04T07:41:34;-2.70;99.90
6008;DHT22;3032;49.484;11.112;2023-12-04T07:44:00;-3.00;99.90
6008;DHT22;3032;49.484;11.112;2023-12-04T07:46:25;-3.00;99.90
6008;DHT22;3032;49.484;11.112;2023-12-04T07:48:51;-2.80;99.90
6008;DHT22;3032;49.484;11.112;2023-12-04T07:51:17;-2.30;99.90
6008;DHT22;3032;49.484;11.112;2023-12-04T07:53:43;-2.30;99.90
6008;DHT22;3032;49.484;11.112;2023-12-04T07:56:09;-2.10;99.90
6008;DHT22;3032;49.484;11.112;2023-12-04T07:58:34;-1.90;99.90
6008;DHT22;3032;49.484;11.112;2023-12-04T08:01:00;-1.60;99.90
6008;DHT22;3032;49.484;11.112;2023-12-04T08:03:26;-1.10;99.90
6008;DHT22;3032;49.484;11.112;2023-12-04T08:05:51;-0.70;99.90
6008;DHT22;3032;49.484;11.112;2023-12-04T08:08:17;0.20;99.90
6008;DHT22;3032;49.484;11.112;2023-12-04T08:10:43;1.10;99.90
6008;DHT22;3032;49.484;11.112;2023-12-04T08:13:08;2.00;99.90
6008;DHT22;3032;49.484;11.112;2023-12-04T08:15:34;2.50;99.90
6008;DHT22;3032;49.484;11.112;2023-12-04T08:17:59;2.90;99.20
6008;DHT22;3032;49.484;11.112;2023-12-04T08:20:26;3.10;98.20
6008;DHT22;3032;49.484;11.112;2023-12-04T08:22:51;2.60;98.50
6008;DHT22;3032;49.484;11.112;2023-12-04T08:25:17;2.20;98.90
6008;DHT22;3032;49.484;11.112;2023-12-04T08:27:42;2.00;99.20
6008;DHT22;3032;49.484;11.112;2023-12-04T08:30:08;1.60;99.50
6008;DHT22;3032;49.484;11.112;2023-12-04T08:32:34;1.70;99.50
6008;DHT22;3032;49.484;11.112;2023-12-04T08:34:59;1.80;99.10
6008;DHT22;3032;49.484;11.112;2023-12-04T08:37:25;1.50;99.00
6008;DHT22;3032;49.484;11.112;2023-12-04T08:39:51;0.80;99.90
6008;DHT22;3032;49.484;11.112;2023-12-04T08:42:16;0.90;99.90
6008;DHT22;3032;49.484;11.112;2023-12-04T08:44:42;1.10;99.90
6008;DHT22;3032;49.484;11.112;2023-12-04T08:47:08;0.70;99.90
6008;DHT22;3032;49.484;11.112;2023-12-04T08:49:33;0.70;99.90
6008;DHT22;3032;49.484;11.112;2023-12-04T08:51:59;0.90;99.90
6008;DHT22;3032;49.484;11.112;2023-12-04T08:54:25;1.00;99.90
6008;DHT22;3032;49.484;11.112;2023-12-04T08:56:50;1.10;99.90
6008;DHT22;3032;49.484;11.112;2023-12-04T08:59:16;1.10;99.90
6008;DHT22;3032;49.484;11.112;2023-12-04T09:01:42;1.10;99.90
6008;DHT22;3032;49.484;11.112;2023-12-04T09:04:09;1.00;99.90
6008;DHT22;3032;49.484;11.112;2023-12-04T09:06:35;1.00;99.90
6008;DHT22;3032;49.484;11.112;2023-12-04T09:09:01;1.10;99.90
6008;DHT22;3032;49.484;11.112;2023-12-04T09:11:27;1.10;99.90
6008;DHT22;3032;49.484;11.112;2023-12-04T09:13:53;1.20;99.90
6008;DHT22;3032;49.484;11.112;2023-12-04T09:16:18;1.40;99.90
6008;DHT22;3032;49.484;11.112;2023-12-04T09:18:44;1.50;99.90
6008;DHT22;3032;49.484;11.112;2023-12-04T09:21:09;1.30;99.90
6008;DHT22;3032;49.484;11.112;2023-12-04T09:23:35;1.40;99.90
6008;DHT22;3032;49.484;11.112;2023-12-04T09:26:01;1.60;99.90
6008;DHT22;3032;49.484;11.112;2023-12-04T09:28:27;1.40;99.90
6008;DHT22;3032;49.484;11.112;2023-12-04T09:30:52;1.40;99.90
6008;DHT22;3032;49.484;11.112;2023-12-04T09:33:18;1.60;99.90
6008;DHT22;3032;49.484;11.112;2023-12-04T09:35:44;1.40;99.90
6008;DHT22;3032;49.484;11.112;2023-12-04T09:38:10;1.50;99.90
6008;DHT22;3032;49.484;11.112;2023-12-04T09:40:35;1.60;99.70
6008;DHT22;3032;49.484;11.112;2023-12-04T09:43:01;1.30;99.90
6008;DHT22;3032;49.484;11.112;2023-12-04T09:45:28;0.90;99.90
6008;DHT22;3032;49.484;11.112;2023-12-04T09:47:55;0.90;99.90
6008;DHT22;3032;49.484;11.112;2023-12-04T09:50:21;1.10;99.90
6008;DHT22;3032;49.484;11.112;2023-12-04T09:52:51;1.10;99.90
6008;DHT22;3032;49.484;11.112;2023-12-04T09:55:17;1.30;99.90
6008;DHT22;3032;49.484;11.112;2023-12-04T09:57:44;1.60;99.90
6008;DHT22;3032;49.484;11.112;2023-12-04T10:00:12;1.70;99.90
6008;DHT22;3032;49.484;11.112;2023-12-04T10:02:39;1.50;99.90
6008;DHT22;3032;49.484;11.112;2023-12-04T10:05:06;1.50;99.90
6008;DHT22;3032;49.484;11.112;2023-12-04T10:07:32;1.60;99.90
6008;DHT22;3032;49.484;11.112;2023-12-04T10:09:57;1.30;99.90
6008;DHT22;3032;49.484;11.112;2023-12-04T10:12:23;1.20;99.90
6008;DHT22;3032;49.484;11.112;2023-12-04T10:15:06;1.20;99.90
6008;DHT22;3032;49.484;11.112;2023-12-04T10:17:36;1.40;99.90
6008;DHT22;3032;49.484;11.112;2023-12-04T10:20:10;1.90;99.90
6008;DHT22;3032;49.484;11.112;2023-12-04T10:22:59;2.20;99.90
6008;DHT22;3032;49.484;11.112;2023-12-04T10:25:28;2.30;99.90
6008;DHT22;3032;49.484;11.112;2023-12-04T10:28:11;2.20;99.90
6008;DHT22;3032;49.484;11.112;2023-12-04T10:30:37;2.20;99.90
6008;DHT22;3032;49.484;11.112;2023-12-04T10:33:04;2.70;99.90
6008;DHT22;3032;49.484;11.112;2023-12-04T10:35:31;2.40;99.90
6008;DHT22;3032;49.484;11.112;2023-12-04T10:37:58;2.30;99.90
6008;DHT22;3032;49.484;11.112;2023-12-04T10:40:28;2.20;99.70
6008;DHT22;3032;49.484;11.112;2023-12-04T10:45:42;2.00;99.90
6008;DHT22;3032;49.484;11.112;2023-12-04T10:48:09;2.10;99.90
6008;DHT22;3032;49.484;11.112;2023-12-04T10:50:37;2.10;99.90
6008;DHT22;3032;49.484;11.112;2023-12-04T10:53:06;1.90;99.90
6008;DHT22;3032;49.484;11.112;2023-12-04T10:55:33;1.40;99.90
6008;DHT22;3032;49.484;11.112;2023-12-04T10:58:05;1.60;99.90
6008;DHT22;3032;49.484;11.112;2023-12-04T11:00:35;2.00;99.90
6008;DHT22;3032;49.484;11.112;2023-12-04T11:03:09;1.90;99.90
6008;DHT22;3032;49.484;11.112;2023-12-04T11:05:40;1.90;99.90
6008;DHT22;3032;49.484;11.112;2023-12-04T11:08:07;1.90;99.90
6008;DHT22;3032;49.484;11.112;2023-12-04T11:11:19;2.20;99.90
6008;DHT22;3032;49.484;11.112;2023-12-04T11:13:30;2.00;99.90
6008;DHT22;3032;49.484;11.112;2023-12-04T11:16:00;1.80;99.90
6008;DHT22;3032;49.484;11.112;2023-12-04T11:18:28;1.50;99.90
6008;DHT22;3032;49.484;11.112;2023-12-04T11:21:02;1.50;99.90
6008;DHT22;3032;49.484;11.112;2023-12-04T11:23:30;1.40;99.90
6008;DHT22;3032;49.484;11.112;2023-12-04T11:25:57;1.40;99.90
6008;DHT22;3032;49.484;11.112;2023-12-04T11:28:23;1.50;99.90
6008;DHT22;3032;49.484;11.112;2023-12-04T11:30:50;1.40;99.90
6008;DHT22;3032;49.484;11.112;2023-12-04T11:33:16;1.20;99.90
6008;DHT22;3032;49.484;11.112;2023-12-04T11:35:41;0.90;99.90
6008;DHT22;3032;49.484;11.112;2023-12-04T11:38:07;0.70;99.90
6008;DHT22;3032;49.484;11.112;2023-12-04T11:40:34;1.00;99.90
6008;DHT22;3032;49.484;11.112;2023-12-04T11:43:20;1.00;99.90
6008;DHT22;3032;49.484;11.112;2023-12-04T11:45:47;0.90;99.90
6008;DHT22;3032;49.484;11.112;2023-12-04T11:48:14;1.00;99.90
6008;DHT22;3032;49.484;11.112;2023-12-04T11:50:39;0.80;99.90
6008;DHT22;3032;49.484;11.112;2023-12-04T11:53:06;0.90;99.90
6008;DHT22;3032;49.484;11.112;2023-12-04T11:55:35;0.50;99.90
6008;DHT22;3032;49.484;11.112;2023-12-04T11:58:09;0.40;99.90
6008;DHT22;3032;49.484;11.112;2023-12-04T12:00:35;0.70;99.90
6008;DHT22;3032;49.484;11.112;2023-12-04T12:03:03;1.10;99.90
6008;DHT22;3032;49.484;11.112;2023-12-04T12:05:32;1.30;99.90
6008;DHT22;3032;49.484;11.112;2023-12-04T12:08:01;1.10;99.90
6008;DHT22;3032;49.484;11.112;2023-12-04T12:10:27;0.90;99.90
6008;DHT22;3032;49.484;11.112;2023-12-04T12:12:53;0.50;99.90
6008;DHT22;3032;49.484;11.112;2023-12-04T12:15:19;0.40;99.90
6008;DHT22;3032;49.484;11.112;2023-12-04T12:17:44;0.70;99.90
6008;DHT22;3032;49.484;11.112;2023-12-04T12:20:12;1.10;99.90
6008;DHT22;3032;49.484;11.112;2023-12-04T12:22:38;1.00;99.90
6008;DHT22;3032;49.484;11.112;2023-12-04T12:25:07;0.90;99.90
6008;DHT22;3032;49.484;11.112;2023-12-04T12:27:33;1.40;99.90
6008;DHT22;3032;49.484;11.112;2023-12-04T12:29:59;1.90;99.90
6008;DHT22;3032;49.484;11.112;2023-12-04T12:32:26;2.50;99.90
6008;DHT22;3032;49.484;11.112;2023-12-04T12:34:52;2.50;99.90
6008;DHT22;3032;49.484;11.112;2023-12-04T12:37:18;2.00;99.90
6008;DHT22;3032;49.484;11.112;2023-12-04T12:39:44;1.80;99.90
6008;DHT22;3032;49.484;11.112;2023-12-04T12:42:09;1.90;99.90
6008;DHT22;3032;49.484;11.112;2023-12-04T12:44:40;2.10;99.90
6008;DHT22;3032;49.484;11.112;2023-12-04T12:47:07;2.30;99.90
6008;DHT22;3032;49.484;11.112;2023-12-04T12:49:33;2.20;99.90
6008;DHT22;3032;49.484;11.112;2023-12-04T12:52:00;1.90;99.90
6008;DHT22;3032;49.484;11.112;2023-12-04T12:54:25;1.60;99.90
6008;DHT22;3032;49.484;11.112;2023-12-04T12:56:51;1.70;99.90
6008;DHT22;3032;49.484;11.112;2023-12-04T12:59:17;1.90;99.90
6008;DHT22;3032;49.484;11.112;2023-12-04T13:01:43;1.90;99.90
6008;DHT22;3032;49.484;11.112;2023-12-04T13:04:13;1.50;99.90
6008;DHT22;3032;49.484;11.112;2023-12-04T13:06:39;1.50;99.90
6008;DHT22;3032;49.484;11.112;2023-12-04T13:09:04;1.20;99.90
6008;DHT22;3032;49.484;11.112;2023-12-04T13:11:32;1.20;99.90
6008;DHT22;3032;49.484;11.112;2023-12-04T13:13:57;1.00;99.90
6008;DHT22;3032;49.484;11.112;2023-12-04T13:16:23;1.10;99.90
6008;DHT22;3032;49.484;11.112;2023-12-04T13:18:49;1.10;99.90
6008;DHT22;3032;49.484;11.112;2023-12-04T13:21:14;0.80;99.90
6008;DHT22;3032;49.484;11.112;2023-12-04T13:23:40;0.80;99.90
6008;DHT22;3032;49.484;11.112;2023-12-04T13:26:05;0.70;99.90
6008;DHT22;3032;49.484;11.112;2023-12-04T13:28:31;1.20;99.90
6008;DHT22;3032;49.484;11.112;2023-12-04T13:30:56;1.00;99.90
6008;DHT22;3032;49.484;11.112;2023-12-04T13:33:22;0.80;99.90
6008;DHT22;3032;49.484;11.112;2023-12-04T13:40:59;1.80;99.90
6008;DHT22;3032;49.484;11.112;2023-12-04T13:43:33;1.70;99.90
6008;DHT22;3032;49.484;11.112;2023-12-04T13:46:17;1.50;99.90
6008;DHT22;3032;49.484;11.112;2023-12-04T13:48:43;1.40;99.90
6008;DHT22;3032;49.484;11.112;2023-12-04T13:51:10;1.50;99.90
6008;DHT22;3032;49.484;11.112;2023-12-04T13:53:36;1.50;99.90
6008;DHT22;3032;49.484;11.112;2023-12-04T13:56:05;1.40;99.90
6008;DHT22;3032;49.484;11.112;2023-12-04T13:58:49;1.40;99.90
6008;DHT22;3032;49.484;11.112;2023-12-04T14:01:22;1.60;99.90
6008;DHT22;3032;49.484;11.112;2023-12-04T14:03:49;1.60;99.90
6008;DHT22;3032;49.484;11.112;2023-12-04T14:06:15;1.20;99.90
6008;DHT22;3032;49.484;11.112;2023-12-04T14:08:41;1.40;99.90
6008;DHT22;3032;49.484;11.112;2023-12-04T14:11:07;1.40;99.90
6008;DHT22;3032;49.484;11.112;2023-12-04T14:13:33;1.40;99.90
6008;DHT22;3032;49.484;11.112;2023-12-04T14:15:59;1.30;99.90
6008;DHT22;3032;49.484;11.112;2023-12-04T14:18:24;1.00;99.90
6008;DHT22;3032;49.484;11.112;2023-12-04T14:20:51;0.70;99.90
6008;DHT22;3032;49.484;11.112;2023-12-04T14:23:17;0.40;99.90
6008;DHT22;3032;49.484;11.112;2023-12-04T14:25:44;0.60;99.90
6008;DHT22;3032;49.484;11.112;2023-12-04T14:28:10;0.70;99.90
6008;DHT22;3032;49.484;11.112;2023-12-04T14:30:35;0.60;99.90
6008;DHT22;3032;49.484;11.112;2023-12-04T14:33:01;0.80;99.90
6008;DHT22;3032;49.484;11.112;2023-12-04T14:35:26;0.70;99.90
6008;DHT22;3032;49.484;11.112;2023-12-04T14:37:52;0.60;99.90
6008;DHT22;3032;49.484;11.112;2023-12-04T14:40:18;0.70;99.90
6008;DHT22;3032;49.484;11.112;2023-12-04T14:42:45;0.90;99.90
6008;DHT22;3032;49.484;11.112;2023-12-04T14:45:11;1.10;99.90
6008;DHT22;3032;49.484;11.112;2023-12-04T14:47:37;0.70;99.90
6008;DHT22;3032;49.484;11.112;2023-12-04T14:50:04;0.20;99.90
6008;DHT22;3032;49.484;11.112;2023-12-04T14:52:29;0.20;99.90
6008;DHT22;3032;49.484;11.112;2023-12-04T14:54:57;0.30;99.90
6008;DHT22;3032;49.484;11.112;2023-12-04T14:57:35;0.10;99.90
6008;DHT22;3032;49.484;11.112;2023-12-04T15:00:07;0.10;99.90
6008;DHT22;3032;49.484;11.112;2023-12-04T15:02:52;0.20;99.90
6008;DHT22;3032;49.484;11.112;2023-12-04T15:05:36;0.20;99.90
6008;DHT22;3032;49.484;11.112;2023-12-04T15:08:17;0.10;99.90
6008;DHT22;3032;49.484;11.112;2023-12-04T15:11:18;0.00;99.90
6008;DHT22;3032;49.484;11.112;2023-12-04T15:14:16;-0.20;99.90
6008;DHT22;3032;49.484;11.112;2023-12-04T15:17:06;-0.30;99.90
6008;DHT22;3032;49.484;11.112;2023-12-04T15:19:40;-0.40;99.90
6008;DHT22;3032;49.484;11.112;2023-12-04T15:22:23;-0.50;99.90
6008;DHT22;3032;49.484;11.112;2023-12-04T15:24:48;-0.30;99.90
6008;DHT22;3032;49.484;11.112;2023-12-04T15:27:14;-0.20;99.90
6008;DHT22;3032;49.484;11.112;2023-12-04T15:29:39;-0.10;99.90
6008;DHT22;3032;49.484;11.112;2023-12-04T15:32:06;-0.10;99.90
6008;DHT22;3032;49.484;11.112;2023-12-04T15:34:31;-0.10;99.90
6008;DHT22;3032;49.484;11.112;2023-12-04T15:36:57;-0.20;99.90
6008;DHT22;3032;49.484;11.112;2023-12-04T15:39:23;-0.20;99.90
6008;DHT22;3032;49.484;11.112;2023-12-04T15:41:48;-0.20;99.90
6008;DHT22;3032;49.484;11.112;2023-12-04T15:44:14;-0.20;99.90
6008;DHT22;3032;49.484;11.112;2023-12-04T15:46:43;-0.20;99.90
6008;DHT22;3032;49.484;11.112;2023-12-04T15:49:10;-0.20;99.90
6008;DHT22;3032;49.484;11.112;2023-12-04T15:51:36;-0.20;99.90
6008;DHT22;3032;49.484;11.112;2023-12-04T15:54:03;-0.10;99.90
6008;DHT22;3032;49.484;11.112;2023-12-04T15:56:29;0.00;99.90
6008;DHT22;3032;49.484;11.112;2023-12-04T15:58:54;-0.30;99.90